sensor_id;sensor_type;location;lat;lon;timestamp;pressure;altitude;pressure_sealevel;temperature;humidity
44198;BME280;30157;55.512;37.764;2022-08-19T00:01:47;100556.75;;;21.09;49.79
44198;BME280;30157;55.512;37.764;2022-08-19T00:04:15;100557.50;;;21.13;49.68
44198;BME280;30157;55.512;37.764;2022-08-19T00:06:45;100544.75;;;21.01;49.87
44198;BME280;30157;55.512;37.764;2022-08-19T00:09:13;100568.88;;;21.15;50.00
44198;BME280;30157;55.512;37.764;2022-08-19T00:11:40;100557.00;;;21.03;50.37
44198;BME280;30157;55.512;37.764;2022-08-19T00:14:08;100568.25;;;21.08;50.54
44198;BME280;30157;55.512;37.764;2022-08-19T00:16:36;100560.75;;;20.96;50.90
44198;BME280;30157;55.512;37.764;2022-08-19T00:19:02;100524.72;;;20.71;50.87
44198;BME280;30157;55.512;37.764;2022-08-19T00:21:28;100515.38;;;20.61;51.03
44198;BME280;30157;55.512;37.764;2022-08-19T00:23:55;100580.09;;;20.96;51.43
44198;BME280;30157;55.512;37.764;2022-08-19T00:26:25;100581.13;;;20.92;51.89
44198;BME280;30157;55.512;37.764;2022-08-19T00:28:51;100585.44;;;20.95;51.85
44198;BME280;30157;55.512;37.764;2022-08-19T00:31:17;100567.63;;;20.76;52.15
44198;BME280;30157;55.512;37.764;2022-08-19T00:33:43;100578.16;;;20.76;52.10
44198;BME280;30157;55.512;37.764;2022-08-19T00:36:09;100554.06;;;20.60;52.49
44198;BME280;30157;55.512;37.764;2022-08-19T00:38:37;100589.69;;;20.74;52.74
44198;BME280;30157;55.512;37.764;2022-08-19T00:41:05;100587.22;;;20.68;52.96
44198;BME280;30157;55.512;37.764;2022-08-19T00:43:32;100588.22;;;20.63;52.79
44198;BME280;30157;55.512;37.764;2022-08-19T00:45:58;100579.59;;;20.60;52.89
44198;BME280;30157;55.512;37.764;2022-08-19T00:48:24;100606.47;;;20.71;53.41
44198;BME280;30157;55.512;37.764;2022-08-19T00:50:52;100591.88;;;20.59;53.19
44198;BME280;30157;55.512;37.764;2022-08-19T00:53:21;100558.41;;;20.36;53.50
44198;BME280;30157;55.512;37.764;2022-08-19T00:55:50;100568.19;;;20.33;53.32
44198;BME280;30157;55.512;37.764;2022-08-19T00:58:19;100619.03;;;20.63;53.22
44198;BME280;30157;55.512;37.764;2022-08-19T01:00:46;100561.22;;;20.31;53.66
44198;BME280;30157;55.512;37.764;2022-08-19T01:03:16;100596.69;;;20.48;53.19
44198;BME280;30157;55.512;37.764;2022-08-19T01:05:44;100612.13;;;20.59;53.34
44198;BME280;30157;55.512;37.764;2022-08-19T01:08:10;100602.69;;;20.52;53.32
44198;BME280;30157;55.512;37.764;2022-08-19T01:10:57;100595.97;;;20.43;53.31
44198;BME280;30157;55.512;37.764;2022-08-19T01:13:29;100591.66;;;20.40;53.49
44198;BME280;30157;55.512;37.764;2022-08-19T01:15:59;100613.34;;;20.48;53.51
44198;BME280;30157;55.512;37.764;2022-08-19T01:18:26;100588.41;;;20.32;53.28
44198;BME280;30157;55.512;37.764;2022-08-19T01:20:55;100601.19;;;20.44;53.28
44198;BME280;30157;55.512;37.764;2022-08-19T01:23:21;100609.09;;;20.44;53.27
44198;BME280;30157;55.512;37.764;2022-08-19T01:26:09;100591.91;;;20.33;53.34
44198;BME280;30157;55.512;37.764;2022-08-19T01:28:36;100602.19;;;20.40;53.41
44198;BME280;30157;55.512;37.764;2022-08-19T01:31:06;100574.69;;;20.22;53.41
44198;BME280;30157;55.512;37.764;2022-08-19T01:33:32;100585.91;;;20.27;53.75
44198;BME280;30157;55.512;37.764;2022-08-19T01:36:08;100544.72;;;19.98;53.79
44198;BME280;30157;55.512;37.764;2022-08-19T01:38:37;100597.41;;;20.26;53.87
44198;BME280;30157;55.512;37.764;2022-08-19T01:41:04;100598.31;;;20.25;54.02
44198;BME280;30157;55.512;37.764;2022-08-19T01:43:30;100575.06;;;20.10;53.89
44198;BME280;30157;55.512;37.764;2022-08-19T01:45:56;100522.72;;;19.71;54.15
44198;BME280;30157;55.512;37.764;2022-08-19T01:48:21;100605.22;;;20.01;54.21
44198;BME280;30157;55.512;37.764;2022-08-19T01:50:49;100551.69;;;19.71;53.98
44198;BME280;30157;55.512;37.764;2022-08-19T01:53:18;100616.44;;;20.08;54.03
44198;BME280;30157;55.512;37.764;2022-08-19T01:55:44;100605.16;;;20.03;54.28
44198;BME280;30157;55.512;37.764;2022-08-19T01:58:22;100562.19;;;19.72;54.21
44198;BME280;30157;55.512;37.764;2022-08-19T02:00:50;100601.84;;;19.96;54.06
44198;BME280;30157;55.512;37.764;2022-08-19T02:03:16;100598.38;;;19.95;53.91
44198;BME280;30157;55.512;37.764;2022-08-19T02:05:43;100602.53;;;20.03;53.80
44198;BME280;30157;55.512;37.764;2022-08-19T02:08:10;100613.91;;;20.03;53.57
44198;BME280;30157;55.512;37.764;2022-08-19T02:10:42;100598.31;;;19.97;53.69
44198;BME280;30157;55.512;37.764;2022-08-19T02:13:10;100528.59;;;19.51;53.53
44198;BME280;30157;55.512;37.764;2022-08-19T02:15:56;100614.91;;;20.01;53.53
44198;BME280;30157;55.512;37.764;2022-08-19T02:18:23;100623.59;;;20.03;53.32
44198;BME280;30157;55.512;37.764;2022-08-19T02:20:49;100583.88;;;19.82;53.18
44198;BME280;30157;55.512;37.764;2022-08-19T02:23:16;100618.66;;;19.92;53.10
44198;BME280;30157;55.512;37.764;2022-08-19T02:25:46;100620.25;;;19.97;53.62
44198;BME280;30157;55.512;37.764;2022-08-19T02:28:13;100585.00;;;19.72;53.43
44198;BME280;30157;55.512;37.764;2022-08-19T02:30:41;100615.31;;;19.87;53.51
44198;BME280;30157;55.512;37.764;2022-08-19T02:33:06;100618.81;;;19.87;53.37
44198;BME280;30157;55.512;37.764;2022-08-19T02:35:32;100623.31;;;19.84;53.37
44198;BME280;30157;55.512;37.764;2022-08-19T02:37:58;100631.13;;;19.87;53.31
44198;BME280;30157;55.512;37.764;2022-08-19T02:40:49;100622.47;;;19.83;53.70
44198;BME280;30157;55.512;37.764;2022-08-19T02:43:17;100612.22;;;19.72;53.98
44198;BME280;30157;55.512;37.764;2022-08-19T02:45:43;100632.13;;;19.83;53.75
44198;BME280;30157;55.512;37.764;2022-08-19T02:48:09;100623.56;;;19.74;53.99
44198;BME280;30157;55.512;37.764;2022-08-19T02:50:38;100639.25;;;19.77;54.16
44198;BME280;30157;55.512;37.764;2022-08-19T02:53:04;100609.19;;;19.56;54.37
44198;BME280;30157;55.512;37.764;2022-08-19T02:55:31;100597.16;;;19.47;54.19
44198;BME280;30157;55.512;37.764;2022-08-19T02:57:57;100634.19;;;19.71;54.46
44198;BME280;30157;55.512;37.764;2022-08-19T03:00:22;100645.41;;;19.78;54.27
44198;BME280;30157;55.512;37.764;2022-08-19T03:02:49;100648.88;;;19.78;54.51
44198;BME280;30157;55.512;37.764;2022-08-19T03:05:15;100644.53;;;19.77;54.76
44198;BME280;30157;55.512;37.764;2022-08-19T03:07:41;100642.53;;;19.87;54.71
44198;BME280;30157;55.512;37.764;2022-08-19T03:10:07;100588.81;;;19.61;54.50
44198;BME280;30157;55.512;37.764;2022-08-19T03:12:38;100585.16;;;19.67;54.24
44198;BME280;30157;55.512;37.764;2022-08-19T03:15:05;100599.06;;;19.72;54.38
44198;BME280;30157;55.512;37.764;2022-08-19T03:17:33;100630.94;;;19.93;54.39
44198;BME280;30157;55.512;37.764;2022-08-19T03:19:59;100631.84;;;19.92;54.25
44198;BME280;30157;55.512;37.764;2022-08-19T03:22:25;100579.28;;;19.59;54.20
44198;BME280;30157;55.512;37.764;2022-08-19T03:24:51;100654.66;;;19.93;54.72
44198;BME280;30157;55.512;37.764;2022-08-19T03:27:17;100656.44;;;19.91;54.39
44198;BME280;30157;55.512;37.764;2022-08-19T03:29:43;100655.66;;;19.89;54.65
44198;BME280;30157;55.512;37.764;2022-08-19T03:32:09;100601.03;;;19.64;54.71
44198;BME280;30157;55.512;37.764;2022-08-19T03:34:37;100624.28;;;19.79;54.74
44198;BME280;30157;55.512;37.764;2022-08-19T03:37:09;100641.81;;;19.82;54.29
44198;BME280;30157;55.512;37.764;2022-08-19T03:39:36;100631.13;;;19.87;54.87
44198;BME280;30157;55.512;37.764;2022-08-19T03:42:03;100652.47;;;20.06;54.58
44198;BME280;30157;55.512;37.764;2022-08-19T03:44:30;100647.09;;;20.10;54.33
44198;BME280;30157;55.512;37.764;2022-08-19T03:47:00;100634.63;;;20.16;54.24
44198;BME280;30157;55.512;37.764;2022-08-19T03:49:27;100649.75;;;20.37;53.83
44198;BME280;30157;55.512;37.764;2022-08-19T03:51:57;100650.31;;;20.47;53.20
44198;BME280;30157;55.512;37.764;2022-08-19T03:54:26;100646.16;;;20.67;53.05
44198;BME280;30157;55.512;37.764;2022-08-19T03:56:54;100641.28;;;20.81;52.70
44198;BME280;30157;55.512;37.764;2022-08-19T03:59:27;100646.19;;;20.92;52.55
44198;BME280;30157;55.512;37.764;2022-08-19T04:01:55;100595.88;;;20.73;52.77
44198;BME280;30157;55.512;37.764;2022-08-19T04:04:24;100574.13;;;20.64;52.71
44198;BME280;30157;55.512;37.764;2022-08-19T04:06:51;100626.69;;;20.97;52.61
44198;BME280;30157;55.512;37.764;2022-08-19T04:09:20;100645.63;;;21.09;52.29
44198;BME280;30157;55.512;37.764;2022-08-19T04:11:50;100640.88;;;21.19;52.17
44198;BME280;30157;55.512;37.764;2022-08-19T04:14:22;100650.81;;;21.36;51.67
44198;BME280;30157;55.512;37.764;2022-08-19T04:16:50;100663.41;;;21.53;51.03
44198;BME280;30157;55.512;37.764;2022-08-19T04:19:17;100616.63;;;21.33;51.02
44198;BME280;30157;55.512;37.764;2022-08-19T04:21:44;100619.69;;;21.20;50.55
44198;BME280;30157;55.512;37.764;2022-08-19T04:24:11;100660.56;;;21.34;51.05
44198;BME280;30157;55.512;37.764;2022-08-19T04:26:37;100619.50;;;21.01;51.42
44198;BME280;30157;55.512;37.764;2022-08-19T04:29:13;100655.84;;;21.18;51.13
44198;BME280;30157;55.512;37.764;2022-08-19T04:31:43;100624.72;;;21.03;51.69
44198;BME280;30157;55.512;37.764;2022-08-19T04:34:12;100659.13;;;21.25;51.94
44198;BME280;30157;55.512;37.764;2022-08-19T04:36:41;100665.19;;;21.27;51.64
44198;BME280;30157;55.512;37.764;2022-08-19T04:39:09;100669.44;;;21.31;51.59
44198;BME280;30157;55.512;37.764;2022-08-19T04:41:35;100651.38;;;21.20;51.50
44198;BME280;30157;55.512;37.764;2022-08-19T04:44:20;100678.31;;;21.30;51.54
44198;BME280;30157;55.512;37.764;2022-08-19T04:46:49;100677.28;;;21.34;51.35
44198;BME280;30157;55.512;37.764;2022-08-19T04:49:16;100659.13;;;21.25;51.56
44198;BME280;30157;55.512;37.764;2022-08-19T04:51:44;100679.63;;;21.42;51.69
44198;BME280;30157;55.512;37.764;2022-08-19T04:54:11;100639.44;;;21.34;51.57
44198;BME280;30157;55.512;37.764;2022-08-19T04:56:38;100662.34;;;21.58;50.66
44198;BME280;30157;55.512;37.764;2022-08-19T04:59:04;100681.00;;;21.77;50.63
44198;BME280;30157;55.512;37.764;2022-08-19T05:01:32;100672.59;;;21.90;50.53
44198;BME280;30157;55.512;37.764;2022-08-19T05:03:59;100622.63;;;21.84;50.35
44198;BME280;30157;55.512;37.764;2022-08-19T05:06:26;100602.09;;;21.92;49.88
44198;BME280;30157;55.512;37.764;2022-08-19T05:08:52;100632.44;;;22.26;49.20
44198;BME280;30157;55.512;37.764;2022-08-19T05:11:20;100667.13;;;22.62;48.84
44198;BME280;30157;55.512;37.764;2022-08-19T05:13:47;100662.78;;;22.82;49.09
44198;BME280;30157;55.512;37.764;2022-08-19T05:16:16;100622.13;;;22.83;48.33
44198;BME280;30157;55.512;37.764;2022-08-19T05:18:43;100662.66;;;23.26;48.25
44198;BME280;30157;55.512;37.764;2022-08-19T05:21:28;100667.84;;;23.48;47.92
44198;BME280;30157;55.512;37.764;2022-08-19T05:24:14;100675.72;;;24.09;46.21
44198;BME280;30157;55.512;37.764;2022-08-19T05:26:42;100636.34;;;24.73;44.74
44198;BME280;30157;55.512;37.764;2022-08-19T05:29:08;100672.31;;;25.80;43.16
44198;BME280;30157;55.512;37.764;2022-08-19T05:31:35;100625.16;;;26.00;41.75
44198;BME280;30157;55.512;37.764;2022-08-19T05:34:02;100646.88;;;26.08;41.67
44198;BME280;30157;55.512;37.764;2022-08-19T05:36:34;100620.09;;;26.11;40.68
44198;BME280;30157;55.512;37.764;2022-08-19T05:39:02;100649.50;;;25.76;41.97
44198;BME280;30157;55.512;37.764;2022-08-19T05:41:27;100657.94;;;25.35;42.48
44198;BME280;30157;55.512;37.764;2022-08-19T05:44:02;100616.13;;;24.70;43.28
44198;BME280;30157;55.512;37.764;2022-08-19T05:46:28;100649.34;;;24.42;44.25
44198;BME280;30157;55.512;37.764;2022-08-19T05:48:54;100623.03;;;24.01;44.82
44198;BME280;30157;55.512;37.764;2022-08-19T05:51:23;100617.81;;;23.80;45.28
44198;BME280;30157;55.512;37.764;2022-08-19T05:53:49;100659.84;;;23.88;45.78
44198;BME280;30157;55.512;37.764;2022-08-19T05:56:16;100669.59;;;23.88;46.22
44198;BME280;30157;55.512;37.764;2022-08-19T05:58:44;100630.91;;;23.45;46.14
44198;BME280;30157;55.512;37.764;2022-08-19T06:01:13;100667.44;;;23.58;46.29
44198;BME280;30157;55.512;37.764;2022-08-19T06:03:39;100678.38;;;23.50;46.37
44198;BME280;30157;55.512;37.764;2022-08-19T06:06:07;100684.06;;;23.41;46.74
44198;BME280;30157;55.512;37.764;2022-08-19T06:08:35;100665.16;;;23.09;47.30
44198;BME280;30157;55.512;37.764;2022-08-19T06:13:43;100668.66;;;23.09;47.91
44198;BME280;30157;55.512;37.764;2022-08-19T06:16:14;100590.09;;;22.70;47.90
44198;BME280;30157;55.512;37.764;2022-08-19T06:18:46;100675.84;;;23.28;47.69
44198;BME280;30157;55.512;37.764;2022-08-19T06:21:14;100638.28;;;23.18;47.89
44198;BME280;30157;55.512;37.764;2022-08-19T06:23:40;100685.06;;;23.59;47.83
44198;BME280;30157;55.512;37.764;2022-08-19T06:26:06;100685.16;;;23.76;47.42
44198;BME280;30157;55.512;37.764;2022-08-19T06:28:33;100681.94;;;23.89;47.34
44198;BME280;30157;55.512;37.764;2022-08-19T06:30:58;100652.03;;;23.85;46.83
44198;BME280;30157;55.512;37.764;2022-08-19T06:33:26;100688.88;;;24.10;46.38
44198;BME280;30157;55.512;37.764;2022-08-19T06:35:52;100672.75;;;23.96;46.44
44198;BME280;30157;55.512;37.764;2022-08-19T06:38:18;100634.63;;;23.79;46.56
44198;BME280;30157;55.512;37.764;2022-08-19T06:40:45;100587.97;;;23.58;46.39
44198;BME280;30157;55.512;37.764;2022-08-19T06:43:11;100637.53;;;23.94;46.63
44198;BME280;30157;55.512;37.764;2022-08-19T06:45:37;100643.25;;;24.04;46.32
44198;BME280;30157;55.512;37.764;2022-08-19T06:48:03;100677.34;;;24.48;46.38
44198;BME280;30157;55.512;37.764;2022-08-19T06:50:29;100679.97;;;24.67;46.01
44198;BME280;30157;55.512;37.764;2022-08-19T06:52:57;100547.09;;;24.00;45.39
44198;BME280;30157;55.512;37.764;2022-08-19T06:55:25;100686.09;;;24.87;44.95
44198;BME280;30157;55.512;37.764;2022-08-19T06:57:54;100658.66;;;24.86;44.34
44198;BME280;30157;55.512;37.764;2022-08-19T07:00:19;100670.63;;;24.95;43.72
44198;BME280;30157;55.512;37.764;2022-08-19T07:02:45;100607.41;;;24.68;44.01
44198;BME280;30157;55.512;37.764;2022-08-19T07:05:11;100653.25;;;25.05;43.46
44198;BME280;30157;55.512;37.764;2022-08-19T07:07:37;100603.81;;;25.03;43.45
44198;BME280;30157;55.512;37.764;2022-08-19T07:10:03;100639.63;;;25.62;42.50
44198;BME280;30157;55.512;37.764;2022-08-19T07:12:31;100673.09;;;25.98;41.67
44198;BME280;30157;55.512;37.764;2022-08-19T07:15:00;100662.38;;;25.84;41.68
44198;BME280;30157;55.512;37.764;2022-08-19T07:17:26;100676.19;;;25.91;41.88
44198;BME280;30157;55.512;37.764;2022-08-19T07:19:52;100618.38;;;25.94;41.52
44198;BME280;30157;55.512;37.764;2022-08-19T07:22:18;100625.16;;;26.46;40.43
44198;BME280;30157;55.512;37.764;2022-08-19T07:24:46;100626.75;;;26.95;39.82
44198;BME280;30157;55.512;37.764;2022-08-19T07:27:13;100624.88;;;27.97;38.34
44198;BME280;30157;55.512;37.764;2022-08-19T07:29:39;100656.69;;;29.33;36.97
44198;BME280;30157;55.512;37.764;2022-08-19T07:32:06;100666.78;;;30.17;33.94
44198;BME280;30157;55.512;37.764;2022-08-19T07:34:33;100677.56;;;30.04;34.21
44198;BME280;30157;55.512;37.764;2022-08-19T07:37:06;100679.72;;;29.99;34.49
44198;BME280;30157;55.512;37.764;2022-08-19T07:39:34;100670.78;;;29.23;35.43
44198;BME280;30157;55.512;37.764;2022-08-19T07:42:04;100661.53;;;29.28;34.76
44198;BME280;30157;55.512;37.764;2022-08-19T07:44:31;100647.81;;;28.81;35.13
44198;BME280;30157;55.512;37.764;2022-08-19T07:46:59;100674.31;;;29.10;35.37
44198;BME280;30157;55.512;37.764;2022-08-19T07:49:26;100669.34;;;29.44;35.06
44198;BME280;30157;55.512;37.764;2022-08-19T07:51:56;100668.56;;;29.42;35.27
44198;BME280;30157;55.512;37.764;2022-08-19T07:54:24;100669.31;;;29.31;34.47
44198;BME280;30157;55.512;37.764;2022-08-19T07:56:50;100671.09;;;29.05;35.03
44198;BME280;30157;55.512;37.764;2022-08-19T07:59:17;100662.31;;;28.50;36.01
44198;BME280;30157;55.512;37.764;2022-08-19T08:01:44;100656.41;;;28.32;36.02
44198;BME280;30157;55.512;37.764;2022-08-19T08:04:10;100649.25;;;27.91;36.67
44198;BME280;30157;55.512;37.764;2022-08-19T08:06:55;100650.06;;;28.20;36.23
44198;BME280;30157;55.512;37.764;2022-08-19T08:09:41;100618.50;;;27.99;36.15
44198;BME280;30157;55.512;37.764;2022-08-19T08:12:16;100663.16;;;28.10;35.92
44198;BME280;30157;55.512;37.764;2022-08-19T08:14:46;100652.81;;;28.06;36.37
44198;BME280;30157;55.512;37.764;2022-08-19T08:17:15;100678.44;;;27.94;35.73
44198;BME280;30157;55.512;37.764;2022-08-19T08:19:42;100679.75;;;27.87;35.85
44198;BME280;30157;55.512;37.764;2022-08-19T08:22:09;100682.66;;;27.55;35.65
44198;BME280;30157;55.512;37.764;2022-08-19T08:24:56;100678.44;;;27.22;35.66
44198;BME280;30157;55.512;37.764;2022-08-19T08:27:26;100642.16;;;27.19;35.95
44198;BME280;30157;55.512;37.764;2022-08-19T08:29:54;100676.16;;;27.30;35.70
44198;BME280;30157;55.512;37.764;2022-08-19T08:32:20;100676.50;;;27.40;36.02
44198;BME280;30157;55.512;37.764;2022-08-19T08:34:45;100640.56;;;27.31;35.13
44198;BME280;30157;55.512;37.764;2022-08-19T08:37:11;100680.34;;;28.06;34.83
44198;BME280;30157;55.512;37.764;2022-08-19T08:39:37;100697.66;;;28.68;32.21
44198;BME280;30157;55.512;37.764;2022-08-19T08:45:08;100700.97;;;29.50;31.31
44198;BME280;30157;55.512;37.764;2022-08-19T08:47:37;100682.78;;;29.43;30.88
44198;BME280;30157;55.512;37.764;2022-08-19T08:50:29;100649.56;;;29.97;30.95
44198;BME280;30157;55.512;37.764;2022-08-19T08:53:01;100684.28;;;30.34;30.72
44198;BME280;30157;55.512;37.764;2022-08-19T08:55:33;100670.44;;;30.40;31.11
44198;BME280;30157;55.512;37.764;2022-08-19T08:58:05;100688.28;;;30.53;30.90
44198;BME280;30157;55.512;37.764;2022-08-19T09:00:34;100689.09;;;30.77;30.05
44198;BME280;30157;55.512;37.764;2022-08-19T09:03:12;100672.22;;;30.99;30.31
44198;BME280;30157;55.512;37.764;2022-08-19T09:05:54;100636.91;;;30.94;29.81
44198;BME280;30157;55.512;37.764;2022-08-19T09:11:07;100666.94;;;30.75;30.38
44198;BME280;30157;55.512;37.764;2022-08-19T09:16:30;100663.88;;;31.15;30.51
44198;BME280;30157;55.512;37.764;2022-08-19T09:19:02;100681.81;;;31.72;30.11
44198;BME280;30157;55.512;37.764;2022-08-19T09:21:28;100682.16;;;31.56;29.93
44198;BME280;30157;55.512;37.764;2022-08-19T09:23:54;100660.69;;;31.56;28.68
44198;BME280;30157;55.512;37.764;2022-08-19T09:26:23;100650.22;;;31.75;28.25
44198;BME280;30157;55.512;37.764;2022-08-19T09:28:51;100683.00;;;32.02;28.11
44198;BME280;30157;55.512;37.764;2022-08-19T09:31:21;100684.25;;;31.29;29.08
44198;BME280;30157;55.512;37.764;2022-08-19T09:33:48;100656.47;;;31.53;27.76
44198;BME280;30157;55.512;37.764;2022-08-19T09:36:16;100700.03;;;32.12;27.21
44198;BME280;30157;55.512;37.764;2022-08-19T09:38:43;100683.06;;;32.34;27.19
44198;BME280;30157;55.512;37.764;2022-08-19T09:41:13;100641.75;;;32.35;26.21
44198;BME280;30157;55.512;37.764;2022-08-19T09:43:41;100640.72;;;32.80;25.28
44198;BME280;30157;55.512;37.764;2022-08-19T09:46:08;100630.53;;;32.83;24.90
44198;BME280;30157;55.512;37.764;2022-08-19T09:48:39;100674.28;;;33.07;24.87
44198;BME280;30157;55.512;37.764;2022-08-19T09:51:06;100703.06;;;33.16;24.30
44198;BME280;30157;55.512;37.764;2022-08-19T09:53:34;100707.22;;;32.88;24.69
44198;BME280;30157;55.512;37.764;2022-08-19T09:56:01;100696.59;;;32.65;24.48
44198;BME280;30157;55.512;37.764;2022-08-19T09:58:26;100716.50;;;32.30;24.67
44198;BME280;30157;55.512;37.764;2022-08-19T10:00:58;100654.06;;;32.05;25.19
44198;BME280;30157;55.512;37.764;2022-08-19T10:03:25;100702.22;;;32.29;25.41
44198;BME280;30157;55.512;37.764;2022-08-19T10:05:51;100668.78;;;31.67;25.80
44198;BME280;30157;55.512;37.764;2022-08-19T10:08:20;100701.44;;;31.83;25.12
44198;BME280;30157;55.512;37.764;2022-08-19T10:10:48;100702.41;;;31.94;24.72
44198;BME280;30157;55.512;37.764;2022-08-19T10:13:18;100695.88;;;31.64;25.81
44198;BME280;30157;55.512;37.764;2022-08-19T10:15:45;100696.22;;;31.71;25.26
44198;BME280;30157;55.512;37.764;2022-08-19T10:18:11;100723.34;;;32.23;24.76
44198;BME280;30157;55.512;37.764;2022-08-19T10:20:37;100654.31;;;32.02;24.09
44198;BME280;30157;55.512;37.764;2022-08-19T10:23:03;100720.66;;;32.55;24.44
44198;BME280;30157;55.512;37.764;2022-08-19T10:25:29;100722.34;;;32.35;24.17
44198;BME280;30157;55.512;37.764;2022-08-19T10:27:54;100709.72;;;31.92;24.73
44198;BME280;30157;55.512;37.764;2022-08-19T10:30:20;100714.63;;;31.75;25.02
44198;BME280;30157;55.512;37.764;2022-08-19T10:32:46;100705.44;;;31.89;24.05
44198;BME280;30157;55.512;37.764;2022-08-19T10:35:13;100714.13;;;31.81;24.37
44198;BME280;30157;55.512;37.764;2022-08-19T10:37:39;100715.84;;;31.71;24.13
44198;BME280;30157;55.512;37.764;2022-08-19T10:40:07;100715.56;;;31.52;24.30
44198;BME280;30157;55.512;37.764;2022-08-19T10:42:36;100709.56;;;31.37;24.04
44198;BME280;30157;55.512;37.764;2022-08-19T10:45:04;100711.41;;;31.47;24.04
44198;BME280;30157;55.512;37.764;2022-08-19T10:47:34;100684.13;;;31.42;23.66
44198;BME280;30157;55.512;37.764;2022-08-19T10:49:59;100711.91;;;31.41;24.00
44198;BME280;30157;55.512;37.764;2022-08-19T10:52:48;100724.31;;;31.20;23.44
44198;BME280;30157;55.512;37.764;2022-08-19T10:55:15;100680.16;;;30.65;22.62
44198;BME280;30157;55.512;37.764;2022-08-19T10:57:59;100724.19;;;30.50;22.96
44198;BME280;30157;55.512;37.764;2022-08-19T11:00:25;100684.66;;;29.92;23.46
44198;BME280;30157;55.512;37.764;2022-08-19T11:02:51;100731.22;;;30.27;23.64
44198;BME280;30157;55.512;37.764;2022-08-19T11:05:18;100709.53;;;30.43;24.47
44198;BME280;30157;55.512;37.764;2022-08-19T11:07:44;100680.88;;;30.56;24.45
44198;BME280;30157;55.512;37.764;2022-08-19T11:10:14;100708.28;;;30.95;25.29
44198;BME280;30157;55.512;37.764;2022-08-19T11:12:42;100716.06;;;31.45;24.51
44198;BME280;30157;55.512;37.764;2022-08-19T11:15:09;100722.41;;;31.90;24.33
44198;BME280;30157;55.512;37.764;2022-08-19T11:17:39;100711.16;;;32.30;24.48
44198;BME280;30157;55.512;37.764;2022-08-19T11:20:15;100712.97;;;32.29;24.13
44198;BME280;30157;55.512;37.764;2022-08-19T11:22:41;100711.69;;;31.90;23.98
44198;BME280;30157;55.512;37.764;2022-08-19T11:25:09;100668.50;;;31.25;24.99
44198;BME280;30157;55.512;37.764;2022-08-19T11:27:39;100713.03;;;30.43;25.06
44198;BME280;30157;55.512;37.764;2022-08-19T11:30:08;100683.44;;;29.46;26.16
44198;BME280;30157;55.512;37.764;2022-08-19T11:32:37;100652.00;;;29.24;26.59
44198;BME280;30157;55.512;37.764;2022-08-19T11:35:03;100713.00;;;29.82;26.30
44198;BME280;30157;55.512;37.764;2022-08-19T11:37:29;100682.34;;;29.49;26.42
44198;BME280;30157;55.512;37.764;2022-08-19T11:39:55;100709.53;;;29.56;26.52
44198;BME280;30157;55.512;37.764;2022-08-19T11:42:20;100658.53;;;29.33;26.40
44198;BME280;30157;55.512;37.764;2022-08-19T11:45:05;100658.72;;;29.43;26.69
44198;BME280;30157;55.512;37.764;2022-08-19T11:47:31;100712.63;;;29.62;27.20
44198;BME280;30157;55.512;37.764;2022-08-19T11:49:57;100709.69;;;29.91;26.88
44198;BME280;30157;55.512;37.764;2022-08-19T11:52:24;100701.56;;;29.80;26.27
44198;BME280;30157;55.512;37.764;2022-08-19T11:54:50;100700.50;;;29.82;26.87
44198;BME280;30157;55.512;37.764;2022-08-19T11:57:16;100727.34;;;29.94;26.75
44198;BME280;30157;55.512;37.764;2022-08-19T11:59:48;100705.44;;;29.63;27.19
44198;BME280;30157;55.512;37.764;2022-08-19T12:02:14;100685.97;;;29.22;26.87
44198;BME280;30157;55.512;37.764;2022-08-19T12:04:40;100713.44;;;29.63;26.88
44198;BME280;30157;55.512;37.764;2022-08-19T12:07:06;100711.31;;;30.18;26.82
44198;BME280;30157;55.512;37.764;2022-08-19T12:09:32;100700.50;;;30.68;25.67
44198;BME280;30157;55.512;37.764;2022-08-19T12:12:00;100718.78;;;31.68;25.49
44198;BME280;30157;55.512;37.764;2022-08-19T12:14:27;100712.88;;;32.20;24.20
44198;BME280;30157;55.512;37.764;2022-08-19T12:16:55;100681.22;;;32.35;24.29
44198;BME280;30157;55.512;37.764;2022-08-19T12:19:21;100702.13;;;32.52;24.43
44198;BME280;30157;55.512;37.764;2022-08-19T12:21:46;100664.16;;;32.13;24.46
44198;BME280;30157;55.512;37.764;2022-08-19T12:24:13;100698.97;;;32.47;24.38
44198;BME280;30157;55.512;37.764;2022-08-19T12:26:39;100701.31;;;31.62;25.14
44198;BME280;30157;55.512;37.764;2022-08-19T12:29:05;100727.22;;;31.16;25.17
44198;BME280;30157;55.512;37.764;2022-08-19T12:31:33;100651.19;;;30.59;25.20
44198;BME280;30157;55.512;37.764;2022-08-19T12:33:59;100723.19;;;30.75;26.26
44198;BME280;30157;55.512;37.764;2022-08-19T12:36:25;100732.94;;;30.28;26.51
44198;BME280;30157;55.512;37.764;2022-08-19T12:38:52;100720.47;;;30.03;27.39
44198;BME280;30157;55.512;37.764;2022-08-19T12:41:18;100724.66;;;29.04;28.64
44198;BME280;30157;55.512;37.764;2022-08-19T12:43:46;100664.06;;;28.24;29.63
44198;BME280;30157;55.512;37.764;2022-08-19T12:46:14;100722.16;;;28.60;30.03
44198;BME280;30157;55.512;37.764;2022-08-19T12:48:40;100699.88;;;28.34;30.22
44198;BME280;30157;55.512;37.764;2022-08-19T12:51:15;100718.44;;;27.94;30.76
44198;BME280;30157;55.512;37.764;2022-08-19T12:53:42;100712.94;;;27.54;31.36
44198;BME280;30157;55.512;37.764;2022-08-19T12:56:10;100712.31;;;27.20;31.90
44198;BME280;30157;55.512;37.764;2022-08-19T12:58:36;100725.34;;;26.94;32.03